Terminal Aerodrome Forecast
Issued by NWS

Home | Current Version | Previous Version | Text Only | Print | Product List | Glossary Off
Versions: 1 2 3 4 5 6 7 8 9 10 11 12 13 14 15 16 17 18 19 20 21 22 23 24 25 26 27 28

000
FTUS43 KPAH 312300
TAFOWB
TAF
KOWB 312320Z 0100/0124 11003KT P6SM SCT050 OVC100
     FM011100 14005KT P6SM SCT025 BKN050
     FM011700 17010G18KT 3SM -RA BR OVC020
      TEMPO 0117/0121 2SM -RA BR OVC007=

USA.gov is the U.S. government's official web portal to all federal, state and local government web resources and services.